Terminal Aerodrome Forecast
Issued by NWS

Home | Current Version | Previous Version | Text Only | Print | Product List | Glossary On
Versions: 1 2 3 4 5 6 7 8 9 10 11 12 13 14 15 16 17 18 19 20 21 22 23 24
000
FTUS43 KSGF 240000 AAB
TAFJLN
TAF AMD
KJLN 240059Z 2401/2424 31011KT 5SM -SHRA BR SCT007 OVC020
     FM240200 33022G35KT 5SM -RA BR OVC009
     FM240400 32022G30KT 3SM -RASN OVC010
     FM240900 28018G28KT P6SM OVC015
     FM241500 27018G28KT P6SM SCT015
     FM241700 27018G25KT P6SM SCT035
     FM242300 27012KT P6SM SKC=

USA.gov is the U.S. government's official web portal to all federal, state and local government web resources and services.